sensor_id;sensor_type;location;lat;lon;timestamp;pressure;altitude;pressure_sealevel;temperature;humidity
19208;BME280;9737;59.466;18.036;2023-03-13T00:01:39;93133.13;;;-8.76;51.24
19208;BME280;9737;59.466;18.036;2023-03-13T00:04:08;93111.13;;;-8.78;51.24
19208;BME280;9737;59.466;18.036;2023-03-13T00:06:38;93104.38;;;-8.79;51.45
19208;BME280;9737;59.466;18.036;2023-03-13T00:09:07;93100.22;;;-8.80;51.11
19208;BME280;9737;59.466;18.036;2023-03-13T00:11:35;93099.22;;;-8.79;51.55
19208;BME280;9737;59.466;18.036;2023-03-13T00:14:05;93057.88;;;-8.92;51.76
19208;BME280;9737;59.466;18.036;2023-03-13T00:16:33;93046.78;;;-8.93;51.46
19208;BME280;9737;59.466;18.036;2023-03-13T00:19:05;93054.69;;;-8.94;51.08
19208;BME280;9737;59.466;18.036;2023-03-13T00:21:33;92992.13;;;-9.10;51.47
19208;BME280;9737;59.466;18.036;2023-03-13T00:24:03;92955.56;;;-9.20;51.01
19208;BME280;9737;59.466;18.036;2023-03-13T00:26:31;92953.00;;;-9.20;51.18
19208;BME280;9737;59.466;18.036;2023-03-13T00:28:58;92992.72;;;-9.08;51.35
19208;BME280;9737;59.466;18.036;2023-03-13T00:31:28;92984.41;;;-9.10;50.72
19208;BME280;9737;59.466;18.036;2023-03-13T00:33:58;92952.22;;;-9.20;51.08
19208;BME280;9737;59.466;18.036;2023-03-13T00:36:28;92981.22;;;-9.12;50.93
19208;BME280;9737;59.466;18.036;2023-03-13T00:38:57;92985.19;;;-9.09;51.36
19208;BME280;9737;59.466;18.036;2023-03-13T00:41:27;92977.66;;;-9.11;51.11
19208;BME280;9737;59.466;18.036;2023-03-13T00:43:56;93017.75;;;-9.01;51.31
19208;BME280;9737;59.466;18.036;2023-03-13T00:46:26;93006.56;;;-9.09;51.02
19208;BME280;9737;59.466;18.036;2023-03-13T00:48:57;92986.97;;;-9.10;51.49
19208;BME280;9737;59.466;18.036;2023-03-13T00:51:25;92937.31;;;-9.25;51.30
19208;BME280;9737;59.466;18.036;2023-03-13T00:53:55;92870.34;;;-9.46;51.21
19208;BME280;9737;59.466;18.036;2023-03-13T00:56:26;92827.56;;;-9.54;51.16
19208;BME280;9737;59.466;18.036;2023-03-13T00:58:54;92800.34;;;-9.63;51.45
19208;BME280;9737;59.466;18.036;2023-03-13T01:01:24;92763.66;;;-9.72;50.97
19208;BME280;9737;59.466;18.036;2023-03-13T01:03:54;92739.03;;;-9.81;51.28
19208;BME280;9737;59.466;18.036;2023-03-13T01:06:24;92690.06;;;-9.94;50.90
19208;BME280;9737;59.466;18.036;2023-03-13T01:08:53;92650.22;;;-10.05;51.07
19208;BME280;9737;59.466;18.036;2023-03-13T01:11:24;92695.81;;;-9.92;51.25
19208;BME280;9737;59.466;18.036;2023-03-13T01:13:53;92709.88;;;-9.88;50.54
19208;BME280;9737;59.466;18.036;2023-03-13T01:16:22;92676.16;;;-10.00;50.67
19208;BME280;9737;59.466;18.036;2023-03-13T01:18:53;92639.16;;;-10.05;51.32
19208;BME280;9737;59.466;18.036;2023-03-13T01:21:22;92639.53;;;-10.08;51.10
19208;BME280;9737;59.466;18.036;2023-03-13T01:23:51;92592.78;;;-10.18;50.68
19208;BME280;9737;59.466;18.036;2023-03-13T01:26:19;92578.13;;;-10.24;51.05
19208;BME280;9737;59.466;18.036;2023-03-13T01:28:49;92554.16;;;-10.32;50.70
19208;BME280;9737;59.466;18.036;2023-03-13T01:31:18;92530.81;;;-10.37;50.80
19208;BME280;9737;59.466;18.036;2023-03-13T01:33:49;92507.59;;;-10.43;50.68
19208;BME280;9737;59.466;18.036;2023-03-13T01:36:17;92485.06;;;-10.48;50.97
19208;BME280;9737;59.466;18.036;2023-03-13T01:38:47;92495.31;;;-10.48;50.80
19208;BME280;9737;59.466;18.036;2023-03-13T01:41:15;92481.25;;;-10.52;50.97
19208;BME280;9737;59.466;18.036;2023-03-13T01:43:43;92458.91;;;-10.58;50.40
19208;BME280;9737;59.466;18.036;2023-03-13T01:46:15;92481.88;;;-10.50;51.05
19208;BME280;9737;59.466;18.036;2023-03-13T01:48:48;92511.59;;;-10.41;51.02
19208;BME280;9737;59.466;18.036;2023-03-13T01:51:20;92480.28;;;-10.51;50.67
19208;BME280;9737;59.466;18.036;2023-03-13T01:53:52;92434.41;;;-10.60;50.60
19208;BME280;9737;59.466;18.036;2023-03-13T01:56:24;92404.69;;;-10.70;50.67
19208;BME280;9737;59.466;18.036;2023-03-13T01:58:55;92392.41;;;-10.74;50.60
19208;BME280;9737;59.466;18.036;2023-03-13T02:01:26;92370.25;;;-10.82;50.81
19208;BME280;9737;59.466;18.036;2023-03-13T02:03:55;92357.00;;;-10.85;50.49
19208;BME280;9737;59.466;18.036;2023-03-13T02:06:26;92343.94;;;-10.90;50.99
19208;BME280;9737;59.466;18.036;2023-03-13T02:08:57;92316.44;;;-10.97;50.34
19208;BME280;9737;59.466;18.036;2023-03-13T02:11:36;92310.69;;;-10.99;50.77
19208;BME280;9737;59.466;18.036;2023-03-13T02:14:06;92293.09;;;-11.02;50.66
19208;BME280;9737;59.466;18.036;2023-03-13T02:16:36;92281.63;;;-11.06;50.67
19208;BME280;9737;59.466;18.036;2023-03-13T02:19:10;92270.53;;;-11.13;50.63
19208;BME280;9737;59.466;18.036;2023-03-13T02:21:48;92289.31;;;-11.06;50.84
19208;BME280;9737;59.466;18.036;2023-03-13T02:24:23;92332.88;;;-10.91;50.76
19208;BME280;9737;59.466;18.036;2023-03-13T02:26:57;92316.44;;;-10.97;50.71
19208;BME280;9737;59.466;18.036;2023-03-13T02:29:25;92297.00;;;-11.06;50.50
19208;BME280;9737;59.466;18.036;2023-03-13T02:31:54;92291.53;;;-11.03;50.51
19208;BME280;9737;59.466;18.036;2023-03-13T02:34:25;92270.78;;;-11.08;50.72
19208;BME280;9737;59.466;18.036;2023-03-13T02:36:55;92269.19;;;-11.09;50.61
19208;BME280;9737;59.466;18.036;2023-03-13T02:39:25;92235.81;;;-11.15;50.78
19208;BME280;9737;59.466;18.036;2023-03-13T02:41:54;92234.41;;;-11.18;50.71
19208;BME280;9737;59.466;18.036;2023-03-13T02:44:24;92236.78;;;-11.16;50.87
19208;BME280;9737;59.466;18.036;2023-03-13T02:46:52;92246.84;;;-11.15;50.78
19208;BME280;9737;59.466;18.036;2023-03-13T02:49:23;92234.59;;;-11.19;51.02
19208;BME280;9737;59.466;18.036;2023-03-13T02:51:53;92207.94;;;-11.25;50.72
19208;BME280;9737;59.466;18.036;2023-03-13T02:54:24;92202.00;;;-11.26;50.80
19208;BME280;9737;59.466;18.036;2023-03-13T02:56:56;92185.56;;;-11.31;50.58
19208;BME280;9737;59.466;18.036;2023-03-13T02:59:26;92177.28;;;-11.33;50.81
19208;BME280;9737;59.466;18.036;2023-03-13T03:01:54;92178.06;;;-11.33;50.61
19208;BME280;9737;59.466;18.036;2023-03-13T03:04:24;92178.88;;;-11.32;50.22
19208;BME280;9737;59.466;18.036;2023-03-13T03:06:52;92176.50;;;-11.34;50.65
19208;BME280;9737;59.466;18.036;2023-03-13T03:09:21;92173.75;;;-11.32;50.85
19208;BME280;9737;59.466;18.036;2023-03-13T03:11:49;92178.88;;;-11.32;50.55
19208;BME280;9737;59.466;18.036;2023-03-13T03:14:17;92181.25;;;-11.31;50.61
19208;BME280;9737;59.466;18.036;2023-03-13T03:16:46;92200.25;;;-11.25;50.38
19208;BME280;9737;59.466;18.036;2023-03-13T03:19:14;92220.38;;;-11.22;50.83
19208;BME280;9737;59.466;18.036;2023-03-13T03:21:43;92210.13;;;-11.22;50.59
19208;BME280;9737;59.466;18.036;2023-03-13T03:24:10;92209.50;;;-11.24;50.63
19208;BME280;9737;59.466;18.036;2023-03-13T03:26:38;92194.31;;;-11.26;50.69
19208;BME280;9737;59.466;18.036;2023-03-13T03:29:06;92224.34;;;-11.19;50.70
19208;BME280;9737;59.466;18.036;2023-03-13T03:31:34;92226.91;;;-11.19;50.64
19208;BME280;9737;59.466;18.036;2023-03-13T03:34:03;92237.41;;;-11.14;50.87
19208;BME280;9737;59.466;18.036;2023-03-13T03:36:31;92257.97;;;-11.08;50.72
19208;BME280;9737;59.466;18.036;2023-03-13T03:38:59;92254.78;;;-11.10;50.61
19208;BME280;9737;59.466;18.036;2023-03-13T03:41:27;92261.50;;;-11.09;50.67
19208;BME280;9737;59.466;18.036;2023-03-13T03:43:54;92264.66;;;-11.07;50.80
19208;BME280;9737;59.466;18.036;2023-03-13T03:46:22;92262.09;;;-11.07;50.76
19208;BME280;9737;59.466;18.036;2023-03-13T03:48:51;92265.66;;;-11.08;50.58
19208;BME280;9737;59.466;18.036;2023-03-13T03:51:20;92260.53;;;-11.08;50.94
19208;BME280;9737;59.466;18.036;2023-03-13T03:53:48;92245.88;;;-11.14;50.24
19208;BME280;9737;59.466;18.036;2023-03-13T03:56:16;92231.47;;;-11.15;50.62
19208;BME280;9737;59.466;18.036;2023-03-13T03:58:43;92223.53;;;-11.20;51.02
19208;BME280;9737;59.466;18.036;2023-03-13T04:01:11;92205.00;;;-11.22;50.70
19208;BME280;9737;59.466;18.036;2023-03-13T04:03:39;92192.91;;;-11.28;50.69
19208;BME280;9737;59.466;18.036;2023-03-13T04:06:07;92172.16;;;-11.33;50.57
19208;BME280;9737;59.466;18.036;2023-03-13T04:08:37;92163.25;;;-11.37;50.22
19208;BME280;9737;59.466;18.036;2023-03-13T04:11:05;92145.69;;;-11.40;50.59
19208;BME280;9737;59.466;18.036;2023-03-13T04:13:32;92131.06;;;-11.46;50.60
19208;BME280;9737;59.466;18.036;2023-03-13T04:16:05;92120.81;;;-11.46;50.31
19208;BME280;9737;59.466;18.036;2023-03-13T04:18:33;92107.78;;;-11.51;50.78
19208;BME280;9737;59.466;18.036;2023-03-13T04:21:02;92114.28;;;-11.49;50.44
19208;BME280;9737;59.466;18.036;2023-03-13T04:23:31;92119.22;;;-11.47;50.61
19208;BME280;9737;59.466;18.036;2023-03-13T04:26:00;92179.47;;;-11.30;50.54
19208;BME280;9737;59.466;18.036;2023-03-13T04:28:28;92147.88;;;-11.37;50.49
19208;BME280;9737;59.466;18.036;2023-03-13T04:30:56;92120.81;;;-11.46;50.68
19208;BME280;9737;59.466;18.036;2023-03-13T04:33:24;92090.41;;;-11.56;50.75
19208;BME280;9737;59.466;18.036;2023-03-13T04:35:52;92039.84;;;-11.69;50.63
19208;BME280;9737;59.466;18.036;2023-03-13T04:38:20;92013.41;;;-11.76;50.50
19208;BME280;9737;59.466;18.036;2023-03-13T04:40:47;92002.78;;;-11.79;50.59
19208;BME280;9737;59.466;18.036;2023-03-13T04:43:17;91977.47;;;-11.89;50.65
19208;BME280;9737;59.466;18.036;2023-03-13T04:45:45;91982.84;;;-11.84;50.56
19208;BME280;9737;59.466;18.036;2023-03-13T04:48:13;91968.81;;;-11.88;50.64
19208;BME280;9737;59.466;18.036;2023-03-13T04:50:40;91953.22;;;-11.93;50.51
19208;BME280;9737;59.466;18.036;2023-03-13T04:53:08;91953.22;;;-11.93;50.32
19208;BME280;9737;59.466;18.036;2023-03-13T04:55:36;91950.66;;;-11.93;50.59
19208;BME280;9737;59.466;18.036;2023-03-13T04:58:04;91967.22;;;-11.89;50.79
19208;BME280;9737;59.466;18.036;2023-03-13T05:00:33;91985.03;;;-11.81;50.21
19208;BME280;9737;59.466;18.036;2023-03-13T05:03:01;92028.81;;;-11.69;50.74
19208;BME280;9737;59.466;18.036;2023-03-13T05:05:29;92076.16;;;-11.59;50.67
19208;BME280;9737;59.466;18.036;2023-03-13T05:07:56;92145.69;;;-11.40;50.59
19208;BME280;9737;59.466;18.036;2023-03-13T05:10:24;92187.78;;;-11.28;50.83
19208;BME280;9737;59.466;18.036;2023-03-13T05:12:52;92235.63;;;-11.14;50.69
19208;BME280;9737;59.466;18.036;2023-03-13T05:15:20;92304.25;;;-10.95;50.88
19208;BME280;9737;59.466;18.036;2023-03-13T05:17:49;92337.47;;;-10.86;50.74
19208;BME280;9737;59.466;18.036;2023-03-13T05:20:20;92363.97;;;-10.79;51.52
19208;BME280;9737;59.466;18.036;2023-03-13T05:22:47;92396.84;;;-10.68;51.44
19208;BME280;9737;59.466;18.036;2023-03-13T05:25:16;92516.03;;;-10.35;51.45
19208;BME280;9737;59.466;18.036;2023-03-13T05:27:44;92697.34;;;-9.83;51.38
19208;BME280;9737;59.466;18.036;2023-03-13T05:30:12;92825.06;;;-9.47;51.13
19208;BME280;9737;59.466;18.036;2023-03-13T05:32:40;92857.41;;;-9.38;51.06
19208;BME280;9737;59.466;18.036;2023-03-13T05:35:09;92975.97;;;-9.03;51.67
19208;BME280;9737;59.466;18.036;2023-03-13T05:37:37;93007.59;;;-8.95;51.38
19208;BME280;9737;59.466;18.036;2023-03-13T05:40:08;93031.81;;;-8.89;51.69
19208;BME280;9737;59.466;18.036;2023-03-13T05:42:36;93058.41;;;-8.82;51.65
19208;BME280;9737;59.466;18.036;2023-03-13T05:45:05;93144.91;;;-8.58;51.45
19208;BME280;9737;59.466;18.036;2023-03-13T05:47:34;93209.91;;;-8.41;51.45
19208;BME280;9737;59.466;18.036;2023-03-13T05:50:02;93255.47;;;-8.27;51.92
19208;BME280;9737;59.466;18.036;2023-03-13T05:52:32;93297.88;;;-8.15;51.77
19208;BME280;9737;59.466;18.036;2023-03-13T05:55:00;93357.19;;;-8.00;52.02
19208;BME280;9737;59.466;18.036;2023-03-13T05:57:28;93427.75;;;-7.78;51.78
19208;BME280;9737;59.466;18.036;2023-03-13T05:59:55;93489.81;;;-7.65;52.54
19208;BME280;9737;59.466;18.036;2023-03-13T06:02:23;93588.75;;;-7.35;52.22
19208;BME280;9737;59.466;18.036;2023-03-13T06:04:51;93708.41;;;-7.05;52.48
19208;BME280;9737;59.466;18.036;2023-03-13T06:07:19;93789.91;;;-6.80;52.46
19208;BME280;9737;59.466;18.036;2023-03-13T06:09:48;93863.41;;;-6.60;52.49
19208;BME280;9737;59.466;18.036;2023-03-13T06:12:16;93897.75;;;-6.51;52.58
19208;BME280;9737;59.466;18.036;2023-03-13T06:14:44;93938.53;;;-6.38;52.36
19208;BME280;9737;59.466;18.036;2023-03-13T06:17:11;93998.91;;;-6.23;52.25
19208;BME280;9737;59.466;18.036;2023-03-13T06:19:39;94079.28;;;-6.02;52.43
19208;BME280;9737;59.466;18.036;2023-03-13T06:22:07;94140.94;;;-5.82;52.89
19208;BME280;9737;59.466;18.036;2023-03-13T06:24:35;94200.22;;;-5.65;52.74
19208;BME280;9737;59.466;18.036;2023-03-13T06:27:06;94278.47;;;-5.46;53.07
19208;BME280;9737;59.466;18.036;2023-03-13T06:29:33;94336.16;;;-5.30;52.65
19208;BME280;9737;59.466;18.036;2023-03-13T06:32:01;94392.94;;;-5.12;53.24
19208;BME280;9737;59.466;18.036;2023-03-13T06:34:29;94490.53;;;-4.88;52.81
19208;BME280;9737;59.466;18.036;2023-03-13T06:36:58;94542.50;;;-4.73;53.19
19208;BME280;9737;59.466;18.036;2023-03-13T06:39:26;94612.94;;;-4.53;53.22
19208;BME280;9737;59.466;18.036;2023-03-13T06:41:54;94671.59;;;-4.36;53.29
19208;BME280;9737;59.466;18.036;2023-03-13T06:44:23;94729.63;;;-4.21;53.56
19208;BME280;9737;59.466;18.036;2023-03-13T06:46:51;94810.38;;;-3.99;53.35
19208;BME280;9737;59.466;18.036;2023-03-13T06:49:19;94873.97;;;-3.79;53.35
19208;BME280;9737;59.466;18.036;2023-03-13T06:51:47;94981.09;;;-3.53;53.54
19208;BME280;9737;59.466;18.036;2023-03-13T06:54:15;95050.13;;;-3.34;53.55
19208;BME280;9737;59.466;18.036;2023-03-13T06:56:42;95179.81;;;-2.98;53.55
19208;BME280;9737;59.466;18.036;2023-03-13T06:59:10;95213.78;;;-2.92;53.62
19208;BME280;9737;59.466;18.036;2023-03-13T07:01:39;95291.88;;;-2.67;53.74
19208;BME280;9737;59.466;18.036;2023-03-13T07:04:10;95385.59;;;-2.43;54.22
19208;BME280;9737;59.466;18.036;2023-03-13T07:06:39;95423.69;;;-2.34;53.96
19208;BME280;9737;59.466;18.036;2023-03-13T07:09:07;95493.41;;;-2.11;54.04
19208;BME280;9737;59.466;18.036;2023-03-13T07:11:35;95518.97;;;-2.07;54.23
19208;BME280;9737;59.466;18.036;2023-03-13T07:14:03;95539.38;;;-2.02;54.12
19208;BME280;9737;59.466;18.036;2023-03-13T07:16:44;95647.56;;;-1.74;54.24
19208;BME280;9737;59.466;18.036;2023-03-13T07:19:12;95715.09;;;-1.54;54.08
19208;BME280;9737;59.466;18.036;2023-03-13T07:21:41;95819.19;;;-1.27;54.37
19208;BME280;9737;59.466;18.036;2023-03-13T07:24:09;95790.47;;;-1.35;54.28
19208;BME280;9737;59.466;18.036;2023-03-13T07:26:37;95832.72;;;-1.23;54.57
19208;BME280;9737;59.466;18.036;2023-03-13T07:29:14;95956.19;;;-0.89;54.39
19208;BME280;9737;59.466;18.036;2023-03-13T07:31:41;96095.28;;;-0.53;54.59
19208;BME280;9737;59.466;18.036;2023-03-13T07:34:11;96162.97;;;-0.34;54.48
19208;BME280;9737;59.466;18.036;2023-03-13T07:36:39;96195.38;;;-0.26;55.08
19208;BME280;9737;59.466;18.036;2023-03-13T07:39:07;96291.94;;;0.01;55.31
19208;BME280;9737;59.466;18.036;2023-03-13T07:41:35;96377.88;;;0.22;54.73
19208;BME280;9737;59.466;18.036;2023-03-13T07:44:05;96402.59;;;0.27;55.11
19208;BME280;9737;59.466;18.036;2023-03-13T07:46:33;96419.34;;;0.35;54.96
19208;BME280;9737;59.466;18.036;2023-03-13T07:49:00;96443.25;;;0.40;55.19
19208;BME280;9737;59.466;18.036;2023-03-13T07:51:29;96559.63;;;0.71;54.97
19208;BME280;9737;59.466;18.036;2023-03-13T07:54:08;96660.00;;;0.98;55.07
19208;BME280;9737;59.466;18.036;2023-03-13T07:56:37;96659.03;;;0.99;55.23
19208;BME280;9737;59.466;18.036;2023-03-13T07:59:05;96644.88;;;0.91;55.53
19208;BME280;9737;59.466;18.036;2023-03-13T08:01:33;96615.84;;;0.85;55.65
19208;BME280;9737;59.466;18.036;2023-03-13T08:04:01;96614.75;;;0.87;55.62
19208;BME280;9737;59.466;18.036;2023-03-13T08:06:33;96653.13;;;0.97;55.55
19208;BME280;9737;59.466;18.036;2023-03-13T08:09:02;96639.66;;;0.91;55.60
19208;BME280;9737;59.466;18.036;2023-03-13T08:11:31;96739.94;;;1.19;55.79
19208;BME280;9737;59.466;18.036;2023-03-13T08:13:58;96722.31;;;1.12;55.61
19208;BME280;9737;59.466;18.036;2023-03-13T08:16:28;96738.69;;;1.14;55.37
19208;BME280;9737;59.466;18.036;2023-03-13T08:18:57;96741.03;;;1.17;56.02
19208;BME280;9737;59.466;18.036;2023-03-13T08:21:27;96684.38;;;0.98;56.05
19208;BME280;9737;59.466;18.036;2023-03-13T08:23:58;96787.00;;;1.29;55.92
19208;BME280;9737;59.466;18.036;2023-03-13T08:26:28;96739.41;;;1.16;56.00
19208;BME280;9737;59.466;18.036;2023-03-13T08:28:58;96761.69;;;1.20;56.14
19208;BME280;9737;59.466;18.036;2023-03-13T08:31:28;96722.31;;;1.12;55.73
19208;BME280;9737;59.466;18.036;2023-03-13T08:33:57;96790.59;;;1.28;55.82
19208;BME280;9737;59.466;18.036;2023-03-13T08:36:27;96802.41;;;1.32;55.96
19208;BME280;9737;59.466;18.036;2023-03-13T08:38:59;96785.34;;;1.28;55.94
19208;BME280;9737;59.466;18.036;2023-03-13T08:41:29;96734.16;;;1.16;55.94
19208;BME280;9737;59.466;18.036;2023-03-13T08:43:57;96667.16;;;0.96;55.79
19208;BME280;9737;59.466;18.036;2023-03-13T08:46:27;96670.47;;;0.98;55.57
19208;BME280;9737;59.466;18.036;2023-03-13T08:48:55;96708.84;;;1.07;56.01
19208;BME280;9737;59.466;18.036;2023-03-13T08:51:24;96720.94;;;1.08;55.56
19208;BME280;9737;59.466;18.036;2023-03-13T08:53:53;96674.19;;;0.95;55.78
19208;BME280;9737;59.466;18.036;2023-03-13T08:56:25;96674.47;;;0.92;56.03
19208;BME280;9737;59.466;18.036;2023-03-13T08:58:57;96624.50;;;0.85;55.73
19208;BME280;9737;59.466;18.036;2023-03-13T09:01:27;96607.59;;;0.80;56.09
19208;BME280;9737;59.466;18.036;2023-03-13T09:03:55;96632.94;;;0.79;56.08
19208;BME280;9737;59.466;18.036;2023-03-13T09:06:23;96651.91;;;0.91;55.87
19208;BME280;9737;59.466;18.036;2023-03-13T09:08:51;96688.47;;;1.01;55.70
19208;BME280;9737;59.466;18.036;2023-03-13T09:11:20;96747.94;;;1.18;56.15
19208;BME280;9737;59.466;18.036;2023-03-13T09:13:50;96836.56;;;1.40;56.30
19208;BME280;9737;59.466;18.036;2023-03-13T09:16:19;96889.44;;;1.53;56.55
19208;BME280;9737;59.466;18.036;2023-03-13T09:18:48;96875.69;;;1.51;56.65
19208;BME280;9737;59.466;18.036;2023-03-13T09:21:18;96889.44;;;1.53;56.46
19208;BME280;9737;59.466;18.036;2023-03-13T09:23:47;96914.09;;;1.61;56.24
19208;BME280;9737;59.466;18.036;2023-03-13T09:26:16;96930.19;;;1.66;56.13
19208;BME280;9737;59.466;18.036;2023-03-13T09:28:46;96871.84;;;1.46;56.43
19208;BME280;9737;59.466;18.036;2023-03-13T09:31:16;96964.41;;;1.74;56.57
19208;BME280;9737;59.466;18.036;2023-03-13T09:33:46;96897.31;;;1.53;56.19
19208;BME280;9737;59.466;18.036;2023-03-13T09:36:15;96935.44;;;1.66;56.69
19208;BME280;9737;59.466;18.036;2023-03-13T09:38:47;96925.41;;;1.61;56.44
19208;BME280;9737;59.466;18.036;2023-03-13T09:41:21;96869.75;;;1.49;56.38
19208;BME280;9737;59.466;18.036;2023-03-13T09:43:53;96913.41;;;1.59;56.46
19208;BME280;9737;59.466;18.036;2023-03-13T09:46:30;96936.41;;;1.65;56.30
19208;BME280;9737;59.466;18.036;2023-03-13T09:49:00;96980.78;;;1.76;56.54
19208;BME280;9737;59.466;18.036;2023-03-13T09:51:32;97016.47;;;1.86;56.47
19208;BME280;9737;59.466;18.036;2023-03-13T09:54:06;97041.28;;;1.92;56.71
19208;BME280;9737;59.466;18.036;2023-03-13T09:56:39;97016.22;;;1.80;56.74
19208;BME280;9737;59.466;18.036;2023-03-13T09:59:15;97008.06;;;1.83;56.65
19208;BME280;9737;59.466;18.036;2023-03-13T10:01:48;97023.38;;;1.88;56.63
19208;BME280;9737;59.466;18.036;2023-03-13T10:04:27;97009.03;;;1.82;57.11
19208;BME280;9737;59.466;18.036;2023-03-13T10:06:55;97033.44;;;1.92;56.71
19208;BME280;9737;59.466;18.036;2023-03-13T10:09:28;97107.75;;;2.10;56.64
19208;BME280;9737;59.466;18.036;2023-03-13T10:12:03;96982.31;;;1.69;56.91
19208;BME280;9737;59.466;18.036;2023-03-13T10:14:38;97002.84;;;1.83;57.04
19208;BME280;9737;59.466;18.036;2023-03-13T10:17:15;97098.38;;;2.08;56.94
19208;BME280;9737;59.466;18.036;2023-03-13T10:19:47;97128.44;;;2.13;57.04
19208;BME280;9737;59.466;18.036;2023-03-13T10:22:24;97069.41;;;2.00;56.98
19208;BME280;9737;59.466;18.036;2023-03-13T10:24:56;97016.63;;;1.85;56.99
19208;BME280;9737;59.466;18.036;2023-03-13T10:27:25;97024.34;;;1.86;56.73
19208;BME280;9737;59.466;18.036;2023-03-13T10:29:52;97060.03;;;1.97;57.03
19208;BME280;9737;59.466;18.036;2023-03-13T10:32:22;97015.94;;;1.83;56.82
19208;BME280;9737;59.466;18.036;2023-03-13T10:34:55;97051.47;;;1.95;57.08
19208;BME280;9737;59.466;18.036;2023-03-13T10:37:25;96988.66;;;1.76;57.15
19208;BME280;9737;59.466;18.036;2023-03-13T10:40:10;96914.38;;;1.58;56.99
19208;BME280;9737;59.466;18.036;2023-03-13T10:42:42;96903.22;;;1.55;56.99
19208;BME280;9737;59.466;18.036;2023-03-13T10:45:15;96937.38;;;1.64;57.03
19208;BME280;9737;59.466;18.036;2023-03-13T10:47:53;96899.91;;;1.53;56.91
19208;BME280;9737;59.466;18.036;2023-03-13T10:50:23;96862.44;;;1.43;57.16
19208;BME280;9737;59.466;18.036;2023-03-13T10:52:51;96916.03;;;1.59;57.23
19208;BME280;9737;59.466;18.036;2023-03-13T10:55:21;96782.78;;;1.18;57.17
19208;BME280;9737;59.466;18.036;2023-03-13T10:57:56;96773.28;;;1.17;57.19
19208;BME280;9737;59.466;18.036;2023-03-13T11:00:32;96783.47;;;1.20;57.28
19208;BME280;9737;59.466;18.036;2023-03-13T11:03:04;96822.38;;;1.33;56.75
19208;BME280;9737;59.466;18.036;2023-03-13T11:05:38;96864.09;;;1.44;57.25
19208;BME280;9737;59.466;18.036;2023-03-13T11:08:15;96874.84;;;1.41;57.10
19208;BME280;9737;59.466;18.036;2023-03-13T11:10:54;96847.31;;;1.37;57.33
19208;BME280;9737;59.466;18.036;2023-03-13T11:13:32;96847.31;;;1.37;57.17
19208;BME280;9737;59.466;18.036;2023-03-13T11:16:20;96835.19;;;1.36;57.62
19208;BME280;9737;59.466;18.036;2023-03-13T11:19:15;96871.94;;;1.44;57.29
19208;BME280;9737;59.466;18.036;2023-03-13T11:21:53;96918.66;;;1.59;57.09
19208;BME280;9737;59.466;18.036;2023-03-13T11:24:27;96908.75;;;1.52;57.58
19208;BME280;9737;59.466;18.036;2023-03-13T11:27:03;96899.91;;;1.53;57.38
19208;BME280;9737;59.466;18.036;2023-03-13T11:29:41;96912.72;;;1.57;57.43
19208;BME280;9737;59.466;18.036;2023-03-13T11:32:19;96974.16;;;1.72;57.48
19208;BME280;9737;59.466;18.036;2023-03-13T11:34:53;96904.34;;;1.53;57.62
19208;BME280;9737;59.466;18.036;2023-03-13T11:37:27;96940.97;;;1.63;57.56
19208;BME280;9737;59.466;18.036;2023-03-13T11:40:02;96945.09;;;1.65;57.93
19208;BME280;9737;59.466;18.036;2023-03-13T11:42:44;96969.88;;;1.71;57.58
19208;BME280;9737;59.466;18.036;2023-03-13T11:45:30;96882.84;;;1.49;57.67
19208;BME280;9737;59.466;18.036;2023-03-13T11:48:06;96878.72;;;1.47;57.45
19208;BME280;9737;59.466;18.036;2023-03-13T11:50:42;96928.16;;;1.60;57.82
19208;BME280;9737;59.466;18.036;2023-03-13T11:53:32;96932.44;;;1.61;57.51
19208;BME280;9737;59.466;18.036;2023-03-13T11:56:10;96899.91;;;1.53;57.46
19208;BME280;9737;59.466;18.036;2023-03-13T11:59:01;96905.16;;;1.53;57.73
19208;BME280;9737;59.466;18.036;2023-03-13T12:01:33;96932.44;;;1.61;58.04
19208;BME280;9737;59.466;18.036;2023-03-13T12:04:05;96935.72;;;1.63;58.08
19208;BME280;9737;59.466;18.036;2023-03-13T12:06:43;96928.59;;;1.55;57.97
19208;BME280;9737;59.466;18.036;2023-03-13T12:09:15;96875.53;;;1.43;57.90
19208;BME280;9737;59.466;18.036;2023-03-13T12:11:52;96890.69;;;1.49;58.01
19208;BME280;9737;59.466;18.036;2023-03-13T12:14:24;96921.16;;;1.50;58.17
19208;BME280;9737;59.466;18.036;2023-03-13T12:16:55;96927.47;;;1.58;57.90
19208;BME280;9737;59.466;18.036;2023-03-13T12:19:29;96958.03;;;1.67;58.32
19208;BME280;9737;59.466;18.036;2023-03-13T12:22:08;96970.19;;;1.68;58.36
19208;BME280;9737;59.466;18.036;2023-03-13T12:24:44;97020.34;;;1.82;58.05
19208;BME280;9737;59.466;18.036;2023-03-13T12:27:17;97036.63;;;1.86;58.17
19208;BME280;9737;59.466;18.036;2023-03-13T12:29:52;97046.66;;;1.91;58.48
19208;BME280;9737;59.466;18.036;2023-03-13T12:32:26;97047.78;;;1.88;58.32
19208;BME280;9737;59.466;18.036;2023-03-13T12:35:00;97095.47;;;2.01;58.22
19208;BME280;9737;59.466;18.036;2023-03-13T12:37:39;97076.72;;;1.96;58.50
19208;BME280;9737;59.466;18.036;2023-03-13T12:40:15;97076.84;;;1.95;58.42
19208;BME280;9737;59.466;18.036;2023-03-13T12:42:50;97095.34;;;2.03;58.28
19208;BME280;9737;59.466;18.036;2023-03-13T12:45:23;97047.78;;;1.88;58.59
19208;BME280;9737;59.466;18.036;2023-03-13T12:48:13;97026.41;;;1.83;58.71
19208;BME280;9737;59.466;18.036;2023-03-13T12:50:56;97056.31;;;1.90;58.72
19208;BME280;9737;59.466;18.036;2023-03-13T12:56:43;97016.22;;;1.80;58.53
19208;BME280;9737;59.466;18.036;2023-03-13T12:59:15;97022.16;;;1.82;58.49
19208;BME280;9737;59.466;18.036;2023-03-13T13:01:48;96975.41;;;1.68;58.62
19208;BME280;9737;59.466;18.036;2023-03-13T13:04:19;96986.44;;;1.71;58.48
19208;BME280;9737;59.466;18.036;2023-03-13T13:06:51;96953.09;;;1.64;58.79
19208;BME280;9737;59.466;18.036;2023-03-13T13:09:23;96943.19;;;1.58;58.78
19208;BME280;9737;59.466;18.036;2023-03-13T13:11:53;96924.31;;;1.54;59.16
19208;BME280;9737;59.466;18.036;2023-03-13T13:17:56;96903.78;;;1.49;58.89
19208;BME280;9737;59.466;18.036;2023-03-13T13:20:30;96910.69;;;1.50;59.29
19208;BME280;9737;59.466;18.036;2023-03-13T13:23:26;96878.44;;;1.40;58.72
19208;BME280;9737;59.466;18.036;2023-03-13T13:32:30;96857.78;;;1.37;59.06
19208;BME280;9737;59.466;18.036;2023-03-13T13:35:04;96867.44;;;1.37;59.06